sensor_id;sensor_type;location;lat;lon;timestamp;noise_LAeq;noise_LA_min;noise_LA_max;noise_LA01;noise_LA95
69615;Laerm;56821;52.486;4.680;2023-05-28T00:00:01;33.79;32.23;35.42;;
69615;Laerm;56821;52.486;4.680;2023-05-28T00:00:13;34.80;33.33;36.57;;
69615;Laerm;56821;52.486;4.680;2023-05-28T00:00:23;34.91;32.75;37.04;;
69615;Laerm;56821;52.486;4.680;2023-05-28T00:00:33;33.30;31.53;41.08;;
69615;Laerm;56821;52.486;4.680;2023-05-28T00:00:44;33.83;31.49;36.71;;
69615;Laerm;56821;52.486;4.680;2023-05-28T00:00:55;35.35;33.33;37.99;;
69615;Laerm;56821;52.486;4.680;2023-05-28T00:01:08;34.78;32.62;37.66;;
69615;Laerm;56821;52.486;4.680;2023-05-28T00:01:18;36.41;33.75;40.25;;
69615;Laerm;56821;52.486;4.680;2023-05-28T00:01:28;36.82;33.28;39.66;;
69615;Laerm;56821;52.486;4.680;2023-05-28T00:01:39;36.80;33.75;39.76;;
69615;Laerm;56821;52.486;4.680;2023-05-28T00:01:49;39.08;34.29;41.66;;
69615;Laerm;56821;52.486;4.680;2023-05-28T00:01:59;33.89;31.87;36.16;;
69615;Laerm;56821;52.486;4.680;2023-05-28T00:02:10;36.86;32.69;40.54;;
69615;Laerm;56821;52.486;4.680;2023-05-28T00:02:20;35.76;33.31;38.52;;
69615;Laerm;56821;52.486;4.680;2023-05-28T00:02:30;35.31;33.40;37.69;;
69615;Laerm;56821;52.486;4.680;2023-05-28T00:02:40;36.37;33.65;38.78;;
69615;Laerm;56821;52.486;4.680;2023-05-28T00:02:51;34.98;32.58;38.14;;
69615;Laerm;56821;52.486;4.680;2023-05-28T00:03:01;34.12;31.36;36.41;;
69615;Laerm;56821;52.486;4.680;2023-05-28T00:03:11;36.78;33.11;39.05;;
69615;Laerm;56821;52.486;4.680;2023-05-28T00:03:22;36.63;33.59;39.74;;
69615;Laerm;56821;52.486;4.680;2023-05-28T00:03:33;35.60;32.80;38.31;;
69615;Laerm;56821;52.486;4.680;2023-05-28T00:03:45;37.11;35.18;41.37;;
69615;Laerm;56821;52.486;4.680;2023-05-28T00:03:55;34.69;32.64;36.89;;
69615;Laerm;56821;52.486;4.680;2023-05-28T00:04:05;34.90;33.16;37.22;;
69615;Laerm;56821;52.486;4.680;2023-05-28T00:04:16;34.25;32.59;37.90;;
69615;Laerm;56821;52.486;4.680;2023-05-28T00:04:26;34.13;32.24;37.46;;
69615;Laerm;56821;52.486;4.680;2023-05-28T00:04:36;34.99;32.74;37.71;;
69615;Laerm;56821;52.486;4.680;2023-05-28T00:04:46;36.27;33.85;49.95;;
69615;Laerm;56821;52.486;4.680;2023-05-28T00:04:56;36.13;34.19;38.62;;
69615;Laerm;56821;52.486;4.680;2023-05-28T00:05:07;36.83;35.19;38.64;;
69615;Laerm;56821;52.486;4.680;2023-05-28T00:05:17;35.22;33.33;37.28;;
69615;Laerm;56821;52.486;4.680;2023-05-28T00:05:27;33.97;32.36;36.93;;
69615;Laerm;56821;52.486;4.680;2023-05-28T00:05:38;35.14;32.89;38.24;;
69615;Laerm;56821;52.486;4.680;2023-05-28T00:05:48;35.61;33.71;38.13;;
69615;Laerm;56821;52.486;4.680;2023-05-28T00:05:58;34.79;33.05;38.19;;
69615;Laerm;56821;52.486;4.680;2023-05-28T00:06:08;35.18;33.16;36.98;;
69615;Laerm;56821;52.486;4.680;2023-05-28T00:06:19;35.67;33.40;39.39;;
69615;Laerm;56821;52.486;4.680;2023-05-28T00:06:29;35.11;32.83;38.77;;
69615;Laerm;56821;52.486;4.680;2023-05-28T00:06:40;35.27;33.41;37.29;;
69615;Laerm;56821;52.486;4.680;2023-05-28T00:06:51;34.61;32.84;36.09;;
69615;Laerm;56821;52.486;4.680;2023-05-28T00:07:03;34.03;32.39;36.29;;
69615;Laerm;56821;52.486;4.680;2023-05-28T00:07:13;34.78;32.10;37.52;;
69615;Laerm;56821;52.486;4.680;2023-05-28T00:07:23;35.54;33.81;37.42;;
69615;Laerm;56821;52.486;4.680;2023-05-28T00:07:34;34.96;33.23;36.95;;
69615;Laerm;56821;52.486;4.680;2023-05-28T00:07:44;39.14;34.99;43.98;;
69615;Laerm;56821;52.486;4.680;2023-05-28T00:07:54;41.55;36.26;44.27;;
69615;Laerm;56821;52.486;4.680;2023-05-28T00:08:06;37.19;34.38;40.00;;
69615;Laerm;56821;52.486;4.680;2023-05-28T00:08:16;36.32;33.98;40.87;;
69615;Laerm;56821;52.486;4.680;2023-05-28T00:08:27;36.87;34.58;39.25;;
69615;Laerm;56821;52.486;4.680;2023-05-28T00:08:37;38.40;35.92;40.60;;
69615;Laerm;56821;52.486;4.680;2023-05-28T00:08:47;36.48;33.42;39.85;;
69615;Laerm;56821;52.486;4.680;2023-05-28T00:08:57;39.91;34.49;45.03;;
69615;Laerm;56821;52.486;4.680;2023-05-28T00:09:08;42.45;38.54;46.20;;
69615;Laerm;56821;52.486;4.680;2023-05-28T00:09:19;37.77;33.83;42.29;;
69615;Laerm;56821;52.486;4.680;2023-05-28T00:09:29;35.48;33.65;38.11;;
69615;Laerm;56821;52.486;4.680;2023-05-28T00:09:40;37.34;34.56;40.01;;
69615;Laerm;56821;52.486;4.680;2023-05-28T00:09:51;38.40;34.92;41.23;;
69615;Laerm;56821;52.486;4.680;2023-05-28T00:10:01;38.22;33.72;44.43;;
69615;Laerm;56821;52.486;4.680;2023-05-28T00:10:11;35.04;32.92;37.53;;
69615;Laerm;56821;52.486;4.680;2023-05-28T00:10:22;34.81;32.55;37.04;;
69615;Laerm;56821;52.486;4.680;2023-05-28T00:10:33;34.49;32.11;37.25;;
69615;Laerm;56821;52.486;4.680;2023-05-28T00:10:44;35.33;31.95;39.03;;
69615;Laerm;56821;52.486;4.680;2023-05-28T00:10:54;37.97;35.60;41.87;;
69615;Laerm;56821;52.486;4.680;2023-05-28T00:11:10;40.84;34.31;50.23;;
69615;Laerm;56821;52.486;4.680;2023-05-28T00:11:20;35.94;33.82;37.54;;
69615;Laerm;56821;52.486;4.680;2023-05-28T00:11:31;36.68;34.17;39.76;;
69615;Laerm;56821;52.486;4.680;2023-05-28T00:11:41;45.20;35.57;51.31;;
69615;Laerm;56821;52.486;4.680;2023-05-28T00:11:53;40.64;34.73;47.41;;
69615;Laerm;56821;52.486;4.680;2023-05-28T00:12:03;37.06;33.80;39.56;;
69615;Laerm;56821;52.486;4.680;2023-05-28T00:12:13;37.78;35.16;40.66;;
69615;Laerm;56821;52.486;4.680;2023-05-28T00:12:24;38.20;35.60;40.87;;
69615;Laerm;56821;52.486;4.680;2023-05-28T00:12:34;39.92;36.58;41.88;;
69615;Laerm;56821;52.486;4.680;2023-05-28T00:12:44;37.32;33.62;41.15;;
69615;Laerm;56821;52.486;4.680;2023-05-28T00:12:54;34.88;32.48;37.97;;
69615;Laerm;56821;52.486;4.680;2023-05-28T00:13:05;34.78;32.79;41.61;;
69615;Laerm;56821;52.486;4.680;2023-05-28T00:13:15;33.61;32.07;35.09;;
69615;Laerm;56821;52.486;4.680;2023-05-28T00:13:28;35.56;32.60;38.17;;
69615;Laerm;56821;52.486;4.680;2023-05-28T00:13:38;39.92;35.76;42.91;;
69615;Laerm;56821;52.486;4.680;2023-05-28T00:13:48;38.05;34.68;42.22;;
69615;Laerm;56821;52.486;4.680;2023-05-28T00:13:59;35.68;33.81;37.71;;
69615;Laerm;56821;52.486;4.680;2023-05-28T00:14:09;34.09;31.49;36.88;;
69615;Laerm;56821;52.486;4.680;2023-05-28T00:14:19;33.40;31.38;35.75;;
69615;Laerm;56821;52.486;4.680;2023-05-28T00:14:30;34.72;33.05;36.45;;
69615;Laerm;56821;52.486;4.680;2023-05-28T00:14:40;34.84;32.60;37.11;;
69615;Laerm;56821;52.486;4.680;2023-05-28T00:14:50;35.11;33.17;38.48;;
69615;Laerm;56821;52.486;4.680;2023-05-28T00:15:00;35.16;33.10;37.41;;
69615;Laerm;56821;52.486;4.680;2023-05-28T00:15:11;35.89;33.21;38.73;;
69615;Laerm;56821;52.486;4.680;2023-05-28T00:15:21;37.14;34.37;40.61;;
69615;Laerm;56821;52.486;4.680;2023-05-28T00:15:31;37.73;34.88;41.45;;
69615;Laerm;56821;52.486;4.680;2023-05-28T00:15:41;35.24;32.98;38.35;;
69615;Laerm;56821;52.486;4.680;2023-05-28T00:15:52;34.89;32.33;39.77;;
69615;Laerm;56821;52.486;4.680;2023-05-28T00:16:02;35.82;33.14;39.52;;
69615;Laerm;56821;52.486;4.680;2023-05-28T00:16:12;34.68;33.16;36.31;;
69615;Laerm;56821;52.486;4.680;2023-05-28T00:16:23;34.56;32.95;36.21;;
69615;Laerm;56821;52.486;4.680;2023-05-28T00:16:33;35.26;33.06;37.61;;
69615;Laerm;56821;52.486;4.680;2023-05-28T00:16:45;34.98;32.92;37.13;;
69615;Laerm;56821;52.486;4.680;2023-05-28T00:16:55;33.47;31.60;35.36;;
69615;Laerm;56821;52.486;4.680;2023-05-28T00:17:06;32.86;30.75;34.44;;
69615;Laerm;56821;52.486;4.680;2023-05-28T00:17:17;32.81;31.33;34.85;;
69615;Laerm;56821;52.486;4.680;2023-05-28T00:17:27;33.02;31.17;35.59;;
69615;Laerm;56821;52.486;4.680;2023-05-28T00:17:38;33.47;30.92;37.13;;
69615;Laerm;56821;52.486;4.680;2023-05-28T00:17:48;36.09;32.88;38.69;;
69615;Laerm;56821;52.486;4.680;2023-05-28T00:18:02;35.19;33.14;38.49;;
69615;Laerm;56821;52.486;4.680;2023-05-28T00:18:13;34.02;32.34;36.36;;
69615;Laerm;56821;52.486;4.680;2023-05-28T00:18:24;34.04;32.57;36.21;;
69615;Laerm;56821;52.486;4.680;2023-05-28T00:18:34;34.42;32.72;36.22;;
69615;Laerm;56821;52.486;4.680;2023-05-28T00:18:45;34.32;32.81;35.79;;
69615;Laerm;56821;52.486;4.680;2023-05-28T00:18:56;34.80;33.26;36.41;;
69615;Laerm;56821;52.486;4.680;2023-05-28T00:19:06;35.06;33.43;37.04;;
69615;Laerm;56821;52.486;4.680;2023-05-28T00:19:17;35.50;33.83;37.45;;
69615;Laerm;56821;52.486;4.680;2023-05-28T00:19:27;34.27;32.56;37.14;;
69615;Laerm;56821;52.486;4.680;2023-05-28T00:19:37;34.43;32.47;36.02;;
69615;Laerm;56821;52.486;4.680;2023-05-28T00:19:47;35.06;32.52;37.71;;
69615;Laerm;56821;52.486;4.680;2023-05-28T00:19:58;34.60;32.79;36.11;;
69615;Laerm;56821;52.486;4.680;2023-05-28T00:20:08;37.73;34.14;40.99;;
69615;Laerm;56821;52.486;4.680;2023-05-28T00:20:19;38.25;33.56;42.38;;
69615;Laerm;56821;52.486;4.680;2023-05-28T00:20:29;33.52;31.72;37.08;;
69615;Laerm;56821;52.486;4.680;2023-05-28T00:20:39;33.18;31.49;34.91;;
69615;Laerm;56821;52.486;4.680;2023-05-28T00:20:50;33.49;31.99;36.05;;
69615;Laerm;56821;52.486;4.680;2023-05-28T00:21:00;33.94;32.35;36.38;;
69615;Laerm;56821;52.486;4.680;2023-05-28T00:21:10;34.30;32.55;35.80;;
69615;Laerm;56821;52.486;4.680;2023-05-28T00:21:21;38.88;33.85;41.63;;
69615;Laerm;56821;52.486;4.680;2023-05-28T00:21:31;37.19;33.60;42.97;;
69615;Laerm;56821;52.486;4.680;2023-05-28T00:21:45;33.79;31.99;36.35;;
69615;Laerm;56821;52.486;4.680;2023-05-28T00:21:55;34.34;31.85;36.92;;
69615;Laerm;56821;52.486;4.680;2023-05-28T00:22:05;36.90;33.97;38.85;;
69615;Laerm;56821;52.486;4.680;2023-05-28T00:22:15;36.59;32.39;39.81;;
69615;Laerm;56821;52.486;4.680;2023-05-28T00:22:26;33.00;31.42;35.31;;
69615;Laerm;56821;52.486;4.680;2023-05-28T00:22:36;32.39;30.96;33.82;;
69615;Laerm;56821;52.486;4.680;2023-05-28T00:22:46;33.40;30.86;35.55;;
69615;Laerm;56821;52.486;4.680;2023-05-28T00:22:56;33.76;31.87;36.55;;
69615;Laerm;56821;52.486;4.680;2023-05-28T00:23:07;33.86;32.02;36.31;;
69615;Laerm;56821;52.486;4.680;2023-05-28T00:23:17;34.80;32.88;36.97;;
69615;Laerm;56821;52.486;4.680;2023-05-28T00:23:27;34.26;32.17;36.99;;
69615;Laerm;56821;52.486;4.680;2023-05-28T00:23:37;34.27;32.10;37.50;;
69615;Laerm;56821;52.486;4.680;2023-05-28T00:23:48;35.38;31.63;40.89;;
69615;Laerm;56821;52.486;4.680;2023-05-28T00:23:58;35.11;31.82;37.42;;
69615;Laerm;56821;52.486;4.680;2023-05-28T00:24:08;38.47;31.47;48.40;;
69615;Laerm;56821;52.486;4.680;2023-05-28T00:24:19;32.65;30.78;34.95;;
69615;Laerm;56821;52.486;4.680;2023-05-28T00:24:29;32.72;31.10;34.53;;
69615;Laerm;56821;52.486;4.680;2023-05-28T00:24:39;32.77;31.06;33.98;;
69615;Laerm;56821;52.486;4.680;2023-05-28T00:24:49;32.73;31.23;34.62;;
69615;Laerm;56821;52.486;4.680;2023-05-28T00:25:00;32.60;31.03;34.15;;
69615;Laerm;56821;52.486;4.680;2023-05-28T00:25:10;32.50;30.76;34.19;;
69615;Laerm;56821;52.486;4.680;2023-05-28T00:25:21;32.85;31.22;35.61;;
69615;Laerm;56821;52.486;4.680;2023-05-28T00:25:31;34.67;32.54;35.97;;
69615;Laerm;56821;52.486;4.680;2023-05-28T00:25:42;35.32;32.72;37.45;;
69615;Laerm;56821;52.486;4.680;2023-05-28T00:25:52;35.93;34.34;38.33;;
69615;Laerm;56821;52.486;4.680;2023-05-28T00:26:02;37.66;33.79;44.87;;
69615;Laerm;56821;52.486;4.680;2023-05-28T00:26:12;35.56;32.39;37.87;;
69615;Laerm;56821;52.486;4.680;2023-05-28T00:26:23;33.31;31.36;35.80;;
69615;Laerm;56821;52.486;4.680;2023-05-28T00:26:33;33.50;31.45;35.17;;
69615;Laerm;56821;52.486;4.680;2023-05-28T00:26:43;33.69;31.24;36.29;;
69615;Laerm;56821;52.486;4.680;2023-05-28T00:26:53;34.18;32.61;35.86;;
69615;Laerm;56821;52.486;4.680;2023-05-28T00:27:03;35.95;33.38;38.29;;
69615;Laerm;56821;52.486;4.680;2023-05-28T00:27:14;35.53;33.77;37.24;;
69615;Laerm;56821;52.486;4.680;2023-05-28T00:27:24;35.26;32.35;37.09;;
69615;Laerm;56821;52.486;4.680;2023-05-28T00:27:34;33.55;31.60;36.06;;
69615;Laerm;56821;52.486;4.680;2023-05-28T00:27:44;32.62;31.20;35.19;;
69615;Laerm;56821;52.486;4.680;2023-05-28T00:27:55;33.51;31.76;35.46;;
69615;Laerm;56821;52.486;4.680;2023-05-28T00:28:05;33.69;31.94;35.56;;
69615;Laerm;56821;52.486;4.680;2023-05-28T00:28:15;33.69;32.19;36.11;;
69615;Laerm;56821;52.486;4.680;2023-05-28T00:28:25;34.22;31.89;36.38;;
69615;Laerm;56821;52.486;4.680;2023-05-28T00:28:35;34.13;30.63;36.84;;
69615;Laerm;56821;52.486;4.680;2023-05-28T00:28:46;34.26;31.73;36.55;;
69615;Laerm;56821;52.486;4.680;2023-05-28T00:28:56;32.96;30.89;36.16;;
69615;Laerm;56821;52.486;4.680;2023-05-28T00:29:06;32.44;30.92;34.59;;
69615;Laerm;56821;52.486;4.680;2023-05-28T00:29:16;32.49;30.36;35.89;;
69615;Laerm;56821;52.486;4.680;2023-05-28T00:29:26;32.78;30.91;36.38;;
69615;Laerm;56821;52.486;4.680;2023-05-28T00:29:37;33.01;31.25;34.70;;
69615;Laerm;56821;52.486;4.680;2023-05-28T00:29:47;33.09;31.18;36.53;;
69615;Laerm;56821;52.486;4.680;2023-05-28T00:29:57;32.23;30.45;35.19;;
69615;Laerm;56821;52.486;4.680;2023-05-28T00:30:07;32.87;30.76;34.98;;
69615;Laerm;56821;52.486;4.680;2023-05-28T00:30:18;35.68;33.13;38.04;;
69615;Laerm;56821;52.486;4.680;2023-05-28T00:30:28;35.09;32.28;37.23;;
69615;Laerm;56821;52.486;4.680;2023-05-28T00:30:39;33.84;31.79;35.81;;
69615;Laerm;56821;52.486;4.680;2023-05-28T00:30:50;32.67;31.00;34.58;;
69615;Laerm;56821;52.486;4.680;2023-05-28T00:31:00;32.13;30.27;33.59;;
69615;Laerm;56821;52.486;4.680;2023-05-28T00:31:12;32.28;30.52;34.09;;
69615;Laerm;56821;52.486;4.680;2023-05-28T00:31:22;32.67;31.16;34.04;;
69615;Laerm;56821;52.486;4.680;2023-05-28T00:31:32;33.06;31.03;35.24;;
69615;Laerm;56821;52.486;4.680;2023-05-28T00:31:42;32.03;30.32;33.75;;
69615;Laerm;56821;52.486;4.680;2023-05-28T00:31:53;31.73;30.33;33.29;;
69615;Laerm;56821;52.486;4.680;2023-05-28T00:32:06;32.16;30.46;40.58;;
69615;Laerm;56821;52.486;4.680;2023-05-28T00:32:16;31.96;30.42;34.68;;
69615;Laerm;56821;52.486;4.680;2023-05-28T00:32:26;32.17;30.18;34.00;;
69615;Laerm;56821;52.486;4.680;2023-05-28T00:32:36;32.17;30.66;33.98;;
69615;Laerm;56821;52.486;4.680;2023-05-28T00:32:46;33.68;31.55;39.08;;
69615;Laerm;56821;52.486;4.680;2023-05-28T00:32:57;33.68;31.61;40.95;;
69615;Laerm;56821;52.486;4.680;2023-05-28T00:33:07;34.09;32.57;39.00;;
69615;Laerm;56821;52.486;4.680;2023-05-28T00:33:17;32.44;30.65;37.26;;
69615;Laerm;56821;52.486;4.680;2023-05-28T00:33:27;34.97;31.19;47.21;;
69615;Laerm;56821;52.486;4.680;2023-05-28T00:33:37;34.52;32.23;40.76;;
69615;Laerm;56821;52.486;4.680;2023-05-28T00:33:48;32.13;30.74;36.95;;
69615;Laerm;56821;52.486;4.680;2023-05-28T00:33:58;32.66;31.15;34.18;;
69615;Laerm;56821;52.486;4.680;2023-05-28T00:34:08;32.48;30.84;34.53;;
69615;Laerm;56821;52.486;4.680;2023-05-28T00:34:18;32.58;31.02;34.04;;
69615;Laerm;56821;52.486;4.680;2023-05-28T00:34:28;32.28;30.67;34.22;;
69615;Laerm;56821;52.486;4.680;2023-05-28T00:34:38;32.62;31.14;35.46;;
69615;Laerm;56821;52.486;4.680;2023-05-28T00:34:49;33.67;31.06;37.46;;
69615;Laerm;56821;52.486;4.680;2023-05-28T00:34:59;34.45;32.79;36.43;;
69615;Laerm;56821;52.486;4.680;2023-05-28T00:35:10;34.72;32.90;36.14;;
69615;Laerm;56821;52.486;4.680;2023-05-28T00:35:20;33.80;32.25;38.67;;
69615;Laerm;56821;52.486;4.680;2023-05-28T00:35:30;34.06;32.15;36.86;;
69615;Laerm;56821;52.486;4.680;2023-05-28T00:35:40;33.39;32.04;35.13;;
69615;Laerm;56821;52.486;4.680;2023-05-28T00:35:51;32.67;31.10;35.51;;
69615;Laerm;56821;52.486;4.680;2023-05-28T00:36:05;32.30;30.66;35.13;;
69615;Laerm;56821;52.486;4.680;2023-05-28T00:36:16;32.52;30.97;33.95;;
69615;Laerm;56821;52.486;4.680;2023-05-28T00:36:26;33.81;31.51;37.92;;
69615;Laerm;56821;52.486;4.680;2023-05-28T00:36:36;36.93;33.87;38.86;;
69615;Laerm;56821;52.486;4.680;2023-05-28T00:36:47;37.11;35.06;40.04;;
69615;Laerm;56821;52.486;4.680;2023-05-28T00:36:57;35.10;32.48;37.82;;
69615;Laerm;56821;52.486;4.680;2023-05-28T00:37:07;33.74;31.66;35.80;;
69615;Laerm;56821;52.486;4.680;2023-05-28T00:37:17;32.72;30.67;34.76;;
69615;Laerm;56821;52.486;4.680;2023-05-28T00:37:28;32.89;31.07;37.23;;
69615;Laerm;56821;52.486;4.680;2023-05-28T00:37:38;34.73;31.75;37.54;;
69615;Laerm;56821;52.486;4.680;2023-05-28T00:37:48;34.69;32.92;36.55;;
69615;Laerm;56821;52.486;4.680;2023-05-28T00:37:58;35.24;32.49;38.64;;
69615;Laerm;56821;52.486;4.680;2023-05-28T00:38:09;37.57;34.23;40.36;;
69615;Laerm;56821;52.486;4.680;2023-05-28T00:38:19;34.61;31.97;37.74;;
69615;Laerm;56821;52.486;4.680;2023-05-28T00:38:29;34.64;32.15;37.96;;
69615;Laerm;56821;52.486;4.680;2023-05-28T00:38:39;33.21;30.68;35.54;;
69615;Laerm;56821;52.486;4.680;2023-05-28T00:38:50;32.99;30.63;36.26;;
69615;Laerm;56821;52.486;4.680;2023-05-28T00:39:00;32.45;30.79;33.86;;
69615;Laerm;56821;52.486;4.680;2023-05-28T00:39:15;33.25;31.55;35.44;;
69615;Laerm;56821;52.486;4.680;2023-05-28T00:39:25;33.06;31.22;35.42;;
69615;Laerm;56821;52.486;4.680;2023-05-28T00:39:35;34.77;32.20;37.94;;
69615;Laerm;56821;52.486;4.680;2023-05-28T00:39:46;35.65;33.30;38.14;;
69615;Laerm;56821;52.486;4.680;2023-05-28T00:39:56;35.63;33.36;39.04;;
69615;Laerm;56821;52.486;4.680;2023-05-28T00:40:06;33.94;31.90;35.95;;
69615;Laerm;56821;52.486;4.680;2023-05-28T00:40:18;33.83;31.85;35.82;;
69615;Laerm;56821;52.486;4.680;2023-05-28T00:40:28;34.32;31.67;41.28;;
69615;Laerm;56821;52.486;4.680;2023-05-28T00:40:42;33.15;31.60;34.62;;
69615;Laerm;56821;52.486;4.680;2023-05-28T00:40:52;33.51;31.48;35.00;;
69615;Laerm;56821;52.486;4.680;2023-05-28T00:41:04;34.01;32.39;35.70;;
69615;Laerm;56821;52.486;4.680;2023-05-28T00:41:23;34.87;32.84;36.76;;
69615;Laerm;56821;52.486;4.680;2023-05-28T00:41:34;35.78;33.27;38.52;;
69615;Laerm;56821;52.486;4.680;2023-05-28T00:41:46;35.28;32.39;38.09;;
69615;Laerm;56821;52.486;4.680;2023-05-28T00:42:00;34.01;31.98;36.29;;
69615;Laerm;56821;52.486;4.680;2023-05-28T00:42:11;32.60;30.95;34.56;;
69615;Laerm;56821;52.486;4.680;2023-05-28T00:42:22;33.01;31.15;35.93;;
69615;Laerm;56821;52.486;4.680;2023-05-28T00:42:34;34.47;32.57;37.26;;
69615;Laerm;56821;52.486;4.680;2023-05-28T00:42:45;33.76;32.55;35.35;;
69615;Laerm;56821;52.486;4.680;2023-05-28T00:42:56;34.45;32.51;37.31;;
69615;Laerm;56821;52.486;4.680;2023-05-28T00:43:06;34.99;32.82;36.80;;
69615;Laerm;56821;52.486;4.680;2023-05-28T00:43:17;35.12;32.87;37.70;;
69615;Laerm;56821;52.486;4.680;2023-05-28T00:43:29;34.71;31.81;36.90;;
69615;Laerm;56821;52.486;4.680;2023-05-28T00:43:39;33.82;31.71;42.20;;
69615;Laerm;56821;52.486;4.680;2023-05-28T00:43:50;33.24;31.51;34.89;;
69615;Laerm;56821;52.486;4.680;2023-05-28T00:44:00;35.29;32.40;40.44;;
69615;Laerm;56821;52.486;4.680;2023-05-28T00:44:11;38.66;32.39;42.53;;
69615;Laerm;56821;52.486;4.680;2023-05-28T00:44:21;32.98;31.33;34.76;;
69615;Laerm;56821;52.486;4.680;2023-05-28T00:44:32;36.75;32.15;40.04;;
69615;Laerm;56821;52.486;4.680;2023-05-28T00:44:42;35.97;31.65;40.44;;
69615;Laerm;56821;52.486;4.680;2023-05-28T00:44:54;34.74;32.76;37.85;;
69615;Laerm;56821;52.486;4.680;2023-05-28T00:45:05;34.93;31.75;39.15;;
69615;Laerm;56821;52.486;4.680;2023-05-28T00:45:15;33.35;31.79;34.93;;
69615;Laerm;56821;52.486;4.680;2023-05-28T00:45:25;32.68;30.79;33.91;;
69615;Laerm;56821;52.486;4.680;2023-05-28T00:45:36;32.56;31.14;34.73;;
69615;Laerm;56821;52.486;4.680;2023-05-28T00:45:47;33.36;31.25;35.81;;
69615;Laerm;56821;52.486;4.680;2023-05-28T00:46:01;33.17;31.11;35.23;;
69615;Laerm;56821;52.486;4.680;2023-05-28T00:46:13;34.76;32.23;37.74;;
69615;Laerm;56821;52.486;4.680;2023-05-28T00:46:28;36.62;33.90;39.53;;
69615;Laerm;56821;52.486;4.680;2023-05-28T00:46:42;36.34;33.22;38.43;;
69615;Laerm;56821;52.486;4.680;2023-05-28T00:46:53;35.85;31.80;38.96;;
69615;Laerm;56821;52.486;4.680;2023-05-28T00:47:04;33.96;32.00;36.62;;
69615;Laerm;56821;52.486;4.680;2023-05-28T00:47:14;33.63;31.68;35.50;;
69615;Laerm;56821;52.486;4.680;2023-05-28T00:47:24;33.48;31.30;35.35;;
69615;Laerm;56821;52.486;4.680;2023-05-28T00:47:35;33.33;31.70;34.84;;
69615;Laerm;56821;52.486;4.680;2023-05-28T00:47:45;33.86;31.87;36.22;;
69615;Laerm;56821;52.486;4.680;2023-05-28T00:47:56;34.98;32.63;37.79;;
69615;Laerm;56821;52.486;4.680;2023-05-28T00:48:06;34.53;32.36;36.96;;
69615;Laerm;56821;52.486;4.680;2023-05-28T00:48:16;33.07;31.14;35.44;;
69615;Laerm;56821;52.486;4.680;2023-05-28T00:48:27;32.35;31.00;33.98;;
69615;Laerm;56821;52.486;4.680;2023-05-28T00:48:38;32.12;30.72;33.66;;
69615;Laerm;56821;52.486;4.680;2023-05-28T00:48:49;32.55;31.19;34.23;;
69615;Laerm;56821;52.486;4.680;2023-05-28T00:48:59;32.93;31.18;34.62;;
69615;Laerm;56821;52.486;4.680;2023-05-28T00:49:10;34.64;32.18;36.70;;
69615;Laerm;56821;52.486;4.680;2023-05-28T00:49:21;34.43;32.30;36.91;;
69615;Laerm;56821;52.486;4.680;2023-05-28T00:49:33;34.34;32.09;39.20;;
69615;Laerm;56821;52.486;4.680;2023-05-28T00:49:43;34.24;32.16;38.32;;
69615;Laerm;56821;52.486;4.680;2023-05-28T00:49:53;33.45;32.06;39.99;;
69615;Laerm;56821;52.486;4.680;2023-05-28T00:50:05;33.87;32.22;35.72;;
69615;Laerm;56821;52.486;4.680;2023-05-28T00:50:15;38.29;34.00;40.60;;
69615;Laerm;56821;52.486;4.680;2023-05-28T00:50:27;37.29;33.59;40.92;;
69615;Laerm;56821;52.486;4.680;2023-05-28T00:50:38;34.86;32.34;36.40;;
69615;Laerm;56821;52.486;4.680;2023-05-28T00:50:48;33.67;32.36;35.20;;
69615;Laerm;56821;52.486;4.680;2023-05-28T00:50:59;34.74;32.68;37.93;;
69615;Laerm;56821;52.486;4.680;2023-05-28T00:51:09;34.88;32.47;37.21;;
69615;Laerm;56821;52.486;4.680;2023-05-28T00:51:20;34.13;31.59;37.05;;
69615;Laerm;56821;52.486;4.680;2023-05-28T00:51:30;33.46;31.76;35.47;;
69615;Laerm;56821;52.486;4.680;2023-05-28T00:51:41;36.17;32.47;38.81;;
69615;Laerm;56821;52.486;4.680;2023-05-28T00:51:52;35.17;31.99;37.81;;
69615;Laerm;56821;52.486;4.680;2023-05-28T00:52:05;33.91;32.25;36.40;;
69615;Laerm;56821;52.486;4.680;2023-05-28T00:52:15;34.74;32.60;38.20;;
69615;Laerm;56821;52.486;4.680;2023-05-28T00:52:26;36.45;33.80;38.85;;
69615;Laerm;56821;52.486;4.680;2023-05-28T00:52:36;34.65;31.62;38.33;;
69615;Laerm;56821;52.486;4.680;2023-05-28T00:52:47;32.76;30.98;34.49;;
69615;Laerm;56821;52.486;4.680;2023-05-28T00:52:59;33.10;31.50;35.21;;
69615;Laerm;56821;52.486;4.680;2023-05-28T00:53:10;33.48;31.71;35.63;;
69615;Laerm;56821;52.486;4.680;2023-05-28T00:53:21;34.65;32.20;37.30;;
69615;Laerm;56821;52.486;4.680;2023-05-28T00:53:32;37.59;34.81;40.42;;
69615;Laerm;56821;52.486;4.680;2023-05-28T00:53:42;38.80;35.35;41.58;;
69615;Laerm;56821;52.486;4.680;2023-05-28T00:53:53;37.25;35.16;39.10;;
69615;Laerm;56821;52.486;4.680;2023-05-28T00:54:03;34.95;32.35;41.87;;
69615;Laerm;56821;52.486;4.680;2023-05-28T00:54:14;35.75;33.37;38.14;;
69615;Laerm;56821;52.486;4.680;2023-05-28T00:54:24;35.45;33.05;38.30;;
69615;Laerm;56821;52.486;4.680;2023-05-28T00:54:35;36.99;34.73;39.00;;
69615;Laerm;56821;52.486;4.680;2023-05-28T00:54:45;34.57;31.70;37.07;;
69615;Laerm;56821;52.486;4.680;2023-05-28T00:54:55;34.14;31.48;37.33;;
69615;Laerm;56821;52.486;4.680;2023-05-28T00:55:10;33.12;30.95;35.73;;
69615;Laerm;56821;52.486;4.680;2023-05-28T00:55:23;33.17;31.44;35.22;;
69615;Laerm;56821;52.486;4.680;2023-05-28T00:55:34;33.23;31.57;35.20;;
69615;Laerm;56821;52.486;4.680;2023-05-28T00:55:44;34.86;32.27;37.32;;
69615;Laerm;56821;52.486;4.680;2023-05-28T00:55:54;36.05;32.15;38.62;;
69615;Laerm;56821;52.486;4.680;2023-05-28T00:56:05;33.85;31.98;35.90;;
69615;Laerm;56821;52.486;4.680;2023-05-28T00:56:16;34.35;32.15;37.35;;
69615;Laerm;56821;52.486;4.680;2023-05-28T00:56:26;33.74;31.79;37.20;;
69615;Laerm;56821;52.486;4.680;2023-05-28T00:56:37;33.77;31.95;36.85;;
69615;Laerm;56821;52.486;4.680;2023-05-28T00:56:47;37.15;33.96;39.59;;
69615;Laerm;56821;52.486;4.680;2023-05-28T00:56:58;35.13;31.87;38.15;;
69615;Laerm;56821;52.486;4.680;2023-05-28T00:57:08;33.14;31.09;34.86;;
69615;Laerm;56821;52.486;4.680;2023-05-28T00:57:19;33.29;31.72;36.05;;
69615;Laerm;56821;52.486;4.680;2023-05-28T00:57:31;34.58;31.69;37.66;;
69615;Laerm;56821;52.486;4.680;2023-05-28T00:57:42;34.93;30.95;40.34;;
69615;Laerm;56821;52.486;4.680;2023-05-28T00:57:52;32.93;31.24;37.82;;
69615;Laerm;56821;52.486;4.680;2023-05-28T00:58:04;32.48;31.19;34.17;;
69615;Laerm;56821;52.486;4.680;2023-05-28T00:58:17;34.43;31.51;37.36;;
69615;Laerm;56821;52.486;4.680;2023-05-28T00:58:29;34.07;30.82;37.48;;
69615;Laerm;56821;52.486;4.680;2023-05-28T00:58:39;32.44;30.53;37.67;;
69615;Laerm;56821;52.486;4.680;2023-05-28T00:58:50;33.15;30.87;35.44;;
69615;Laerm;56821;52.486;4.680;2023-05-28T00:59:01;33.64;31.54;35.81;;
69615;Laerm;56821;52.486;4.680;2023-05-28T00:59:12;34.06;31.63;36.43;;
69615;Laerm;56821;52.486;4.680;2023-05-28T00:59:22;34.77;32.54;37.49;;
69615;Laerm;56821;52.486;4.680;2023-05-28T00:59:33;35.06;32.12;39.37;;
69615;Laerm;56821;52.486;4.680;2023-05-28T00:59:44;39.33;34.09;42.96;;